Pagrindinis puslapis
METAR-TAF:

METAR-TAF

Oro uostai :

Fortaleza, Ceará, Brazilija

platuma: 03-47S, ilguma: 038-32W, Aukštis: 25 m

Dabartinis oras

Ataskaita buvo paskelbta 11 minutes, ne 16:00 UTC
Vėjas 18 kt iš Rytų
Temperatūra 30°C
Drėgmė 59%
Slėgis 1014 hPa
Matomumas 10 km arba daugiau
Mažai debesys ne aukštis 3000 ft

METAR: SBFZ 101600Z 09018KT 9999 FEW030 30/21 Q1014

Laikas: 13:11 (16:11 UTC)

Prognozė

Ataskaita buvo paskelbta 7 valandos ir 11 minutes, ne 09:00 UTC
Prognozė galioja nuo 10 metu 12 UTC su 11 metu 12 UTC
Vėjas 5 kt iš Pietryčių
Matomumas 10 km arba daugiau
Išsisklaidę debesys ne aukštis 2000 ft
Tapsmas
nuo 10 metu 14 UTC su 10 metu 16 UTC
Vėjas 15 kt iš Rytų
Su prošvaistėmis ne aukštis 2500 ft
Tapsmas
nuo 10 metu 22 UTC su 10 metu 24 UTC
Vėjas 8 kt iš Rytų/Šiaurės Rytų
Mažai debesys ne aukštis 2500 ft

TAF: SBFZ 100900Z 1012/1112 13005KT 9999 SCT020 TX30/1016Z TN25/1106Z BECMG 1014/1016 10015KT BKN025 BECMG 1022/1024 07008KT FEW025 RMK PEH

Orai ataskaitas ir orų prognozės (METAR, TAF).

turimą stotys yra geltonos ir raudonos taškus žemėlapyje.

Perkelti pele per norėdami pamatyti stoties vardą.

Tada spustelėkite, norėdami matyti oro stebėjimo ir prognozės.

Norėdami pakeisti žemėlapį: spustelėkite ant žalios mygtukų su juodo kryžiaus žemyn,; žalią mygtuką su brūkšneliu, jei norite nutolinti; arba žalių rodyklių gretimoms žemėlapius.


METAR-TAF: